createdAt,value
2022-12-17T00:00:51.042Z,-88.00
2022-12-17T00:01:51.660Z,-85.00
2022-12-17T00:02:52.015Z,-87.00
2022-12-17T00:03:52.880Z,-87.00
2022-12-17T00:04:52.743Z,-87.00
2022-12-17T00:05:53.532Z,-88.00
2022-12-17T00:06:54.578Z,-86.00
2022-12-17T00:07:54.983Z,-88.00
2022-12-17T00:08:55.856Z,-86.00
2022-12-17T00:09:56.734Z,-88.00
2022-12-17T00:10:56.727Z,-88.00
2022-12-17T00:11:05.353Z,-86.00
2022-12-17T00:12:05.443Z,-87.00
2022-12-17T00:13:05.652Z,-84.00
2022-12-17T00:14:06.104Z,-86.00
2022-12-17T00:15:07.033Z,-87.00
2022-12-17T00:16:07.923Z,-84.00
2022-12-17T00:17:08.861Z,-86.00
2022-12-17T00:18:09.808Z,-86.00
2022-12-17T00:19:09.943Z,-87.00
2022-12-17T00:20:09.954Z,-87.00
2022-12-17T00:21:11.691Z,-88.00
2022-12-17T00:22:11.003Z,-87.00
2022-12-17T00:23:12.597Z,-88.00
2022-12-17T00:24:13.201Z,-85.00
2022-12-17T00:25:13.152Z,-87.00
2022-12-17T00:26:13.768Z,-88.00
2022-12-17T00:27:14.254Z,-84.00
2022-12-17T00:28:15.319Z,-83.00
2022-12-17T00:29:15.082Z,-87.00
2022-12-17T00:30:15.784Z,-87.00
2022-12-17T00:31:17.819Z,-85.00
2022-12-17T00:32:17.700Z,-86.00
2022-12-17T00:33:18.840Z,-88.00
2022-12-17T00:34:18.530Z,-85.00
2022-12-17T00:34:27.151Z,-84.00
2022-12-17T00:35:28.828Z,-87.00
2022-12-17T00:36:29.766Z,-87.00
2022-12-17T00:37:30.501Z,-85.00
2022-12-17T00:38:31.043Z,-86.00
2022-12-17T00:39:30.924Z,-84.00
2022-12-17T00:40:32.583Z,-87.00
2022-12-17T00:41:32.187Z,-84.00
2022-12-17T00:42:33.722Z,-87.00
2022-12-17T00:43:34.156Z,-86.00
2022-12-17T00:44:34.288Z,-84.00
2022-12-17T00:45:35.949Z,-86.00
2022-12-17T00:46:36.000Z,-86.00
2022-12-17T00:47:36.742Z,-88.00
2022-12-17T00:48:37.767Z,-86.00
2022-12-17T00:49:37.824Z,-87.00
2022-12-17T00:50:38.150Z,-85.00
2022-12-17T00:51:39.840Z,-85.00
2022-12-17T00:52:40.231Z,-86.00
2022-12-17T00:53:40.057Z,-85.00
2022-12-17T00:54:41.801Z,-86.00
2022-12-17T00:54:50.429Z,-86.00
2022-12-17T00:55:52.177Z,-87.00
2022-12-17T00:56:52.780Z,-87.00
2022-12-17T00:57:52.413Z,-87.00
2022-12-17T00:58:52.994Z,-87.00
2022-12-17T00:59:53.477Z,-87.00
2022-12-17T01:00:55.223Z,-85.00
2022-12-17T01:01:55.032Z,-86.00
2022-12-17T01:02:55.626Z,-85.00
2022-12-17T01:03:56.331Z,-87.00
2022-12-17T01:04:57.317Z,-86.00
2022-12-17T01:05:57.987Z,-87.00
2022-12-17T01:06:59.009Z,-85.00
2022-12-17T01:07:59.584Z,-85.00
2022-12-17T01:08:58.603Z,-86.00
2022-12-17T01:09:58.650Z,-86.00
2022-12-17T01:10:59.414Z,-86.00
2022-12-17T01:11:59.659Z,-85.00
2022-12-17T01:13:00.811Z,-86.00
2022-12-17T01:14:00.672Z,-87.00
2022-12-17T01:15:01.608Z,-86.00
2022-12-17T01:16:03.359Z,-87.00
2022-12-17T01:17:03.146Z,-87.00
2022-12-17T01:17:11.773Z,-88.00
2022-12-17T01:18:12.840Z,-86.00
2022-12-17T01:19:13.358Z,-87.00
2022-12-17T01:20:13.165Z,-86.00
2022-12-17T01:21:14.016Z,-86.00
2022-12-17T01:22:14.781Z,-86.00
2022-12-17T01:23:16.555Z,-86.00
2022-12-17T01:24:16.269Z,-86.00
2022-12-17T01:25:16.759Z,-87.00
2022-12-17T01:26:17.266Z,-88.00
2022-12-17T01:27:17.759Z,-85.00
2022-12-17T01:28:18.544Z,-87.00
2022-12-17T01:29:18.845Z,-86.00
2022-12-17T01:30:20.775Z,-87.00
2022-12-17T01:31:20.596Z,-87.00
2022-12-17T01:32:20.623Z,-86.00
2022-12-17T01:33:21.524Z,-87.00
2022-12-17T01:34:23.406Z,-86.00
2022-12-17T01:35:24.197Z,-86.00
2022-12-17T01:36:23.908Z,-87.00
2022-12-17T01:37:24.682Z,-87.00
2022-12-17T01:38:26.635Z,-85.00
2022-12-17T01:39:27.296Z,-86.00
2022-12-17T01:40:28.192Z,-88.00
2022-12-17T01:41:27.746Z,-85.00
2022-12-17T01:41:36.372Z,-86.00
2022-12-17T01:42:37.550Z,-87.00
2022-12-17T01:43:38.260Z,-86.00
2022-12-17T01:44:37.522Z,-86.00
2022-12-17T01:45:39.470Z,-87.00
2022-12-17T01:46:38.632Z,-86.00
2022-12-17T01:47:40.020Z,-85.00
2022-12-17T01:48:39.806Z,-85.00
2022-12-17T01:49:41.699Z,-85.00
2022-12-17T01:50:42.180Z,-85.00
2022-12-17T01:51:41.910Z,-86.00
2022-12-17T01:52:42.498Z,-85.00
2022-12-17T01:53:43.169Z,-86.00
2022-12-17T01:54:43.402Z,-85.00
2022-12-17T01:55:44.162Z,-85.00
2022-12-17T01:56:46.038Z,-87.00
2022-12-17T01:57:45.962Z,-85.00
2022-12-17T01:58:46.736Z,-87.00
2022-12-17T01:59:48.611Z,-86.00
2022-12-17T02:00:48.041Z,-88.00
2022-12-17T02:01:48.639Z,-89.00
2022-12-17T02:02:48.587Z,-87.00
2022-12-17T02:03:48.685Z,-85.00
2022-12-17T02:03:57.323Z,-86.00
2022-12-17T02:04:57.370Z,-87.00
2022-12-17T02:05:59.345Z,-87.00
2022-12-17T02:06:58.749Z,-86.00
2022-12-17T02:08:00.283Z,-86.00
2022-12-17T02:09:00.918Z,-89.00
2022-12-17T02:10:00.180Z,-86.00
2022-12-17T02:11:01.286Z,-85.00
2022-12-17T02:12:02.013Z,-86.00
2022-12-17T02:13:01.552Z,-86.00
2022-12-17T02:14:03.484Z,-86.00
2022-12-17T02:15:02.923Z,-86.00
2022-12-17T02:16:04.598Z,-88.00
2022-12-17T02:17:03.913Z,-86.00
2022-12-17T02:18:04.339Z,-86.00
2022-12-17T02:19:06.097Z,-88.00
2022-12-17T02:20:06.567Z,-87.00
2022-12-17T02:21:07.308Z,-87.00
2022-12-17T02:22:06.791Z,-85.00
2022-12-17T02:23:07.686Z,-86.00
2022-12-17T02:24:09.500Z,-86.00
2022-12-17T02:25:10.316Z,-87.00
2022-12-17T02:25:18.898Z,-85.00
2022-12-17T02:26:20.497Z,-86.00
2022-12-17T02:27:19.990Z,-88.00
2022-12-17T02:28:20.705Z,-86.00
2022-12-17T02:29:20.768Z,-86.00
2022-12-17T02:30:21.529Z,-88.00
2022-12-17T02:31:23.296Z,-87.00
2022-12-17T02:32:22.970Z,-86.00
2022-12-17T02:33:24.651Z,-87.00
2022-12-17T02:34:24.798Z,-86.00
2022-12-17T02:35:25.504Z,-87.00
2022-12-17T02:36:25.467Z,-87.00
2022-12-17T02:37:26.226Z,-88.00
2022-12-17T02:38:27.708Z,-87.00
2022-12-17T02:39:27.309Z,-87.00
2022-12-17T02:40:28.080Z,-87.00
2022-12-17T02:41:28.381Z,-87.00
2022-12-17T02:42:29.294Z,-87.00
2022-12-17T02:43:31.050Z,-87.00
2022-12-17T02:44:30.390Z,-86.00
2022-12-17T02:45:32.238Z,-86.00
2022-12-17T02:46:31.984Z,-85.00
2022-12-17T02:47:33.902Z,-88.00
2022-12-17T02:47:43.087Z,-87.00
2022-12-17T02:48:44.790Z,-87.00
2022-12-17T02:49:45.214Z,-87.00
2022-12-17T02:50:46.127Z,-87.00
2022-12-17T02:51:46.708Z,-87.00
2022-12-17T02:52:46.592Z,-87.00
2022-12-17T02:53:47.581Z,-88.00
2022-12-17T02:54:48.830Z,-85.00
2022-12-17T02:55:49.284Z,-86.00
2022-12-17T02:56:50.009Z,-86.00
2022-12-17T02:57:53.750Z,-86.00
2022-12-17T02:58:49.938Z,-86.00
2022-12-17T02:59:51.062Z,-86.00
2022-12-17T03:00:51.864Z,-87.00
2022-12-17T03:01:51.598Z,-86.00
2022-12-17T03:02:52.157Z,-85.00
2022-12-17T03:03:52.053Z,-86.00
2022-12-17T03:04:53.109Z,-87.00
2022-12-17T03:05:53.837Z,-85.00
2022-12-17T03:06:53.810Z,-86.00
2022-12-17T03:07:54.549Z,-87.00
2022-12-17T03:08:03.697Z,-85.00
2022-12-17T03:09:04.684Z,-86.00
2022-12-17T03:10:05.842Z,-85.00
2022-12-17T03:11:05.733Z,-86.00
2022-12-17T03:12:07.298Z,-86.00
2022-12-17T03:13:07.434Z,-85.00
2022-12-17T03:14:08.254Z,-87.00
2022-12-17T03:15:08.124Z,-86.00
2022-12-17T03:16:09.159Z,-86.00
2022-12-17T03:17:08.302Z,-87.00
2022-12-17T03:18:08.652Z,-88.00
2022-12-17T03:19:09.529Z,-87.00
2022-12-17T03:20:09.557Z,-87.00
2022-12-17T03:21:10.194Z,-86.00
2022-12-17T03:22:10.862Z,-86.00
2022-12-17T03:23:11.426Z,-86.00
2022-12-17T03:24:13.166Z,-87.00
2022-12-17T03:25:12.477Z,-87.00
2022-12-17T03:26:13.608Z,-86.00
2022-12-17T03:27:13.144Z,-84.00
2022-12-17T03:28:14.781Z,-85.00
2022-12-17T03:29:15.221Z,-86.00
2022-12-17T03:29:23.933Z,-85.00
2022-12-17T03:30:24.311Z,-85.00
2022-12-17T03:31:24.465Z,-85.00
2022-12-17T03:32:24.937Z,-86.00
2022-12-17T03:33:25.449Z,-88.00
2022-12-17T03:34:26.343Z,-86.00
2022-12-17T03:35:27.118Z,-88.00
2022-12-17T03:36:27.999Z,-87.00
2022-12-17T03:37:29.042Z,-88.00
2022-12-17T03:38:28.011Z,-87.00
2022-12-17T03:39:29.787Z,-86.00
2022-12-17T03:40:28.953Z,-86.00
2022-12-17T03:41:30.028Z,-86.00
2022-12-17T03:42:30.668Z,-87.00
2022-12-17T03:43:30.751Z,-86.00
2022-12-17T03:44:31.053Z,-87.00
2022-12-17T03:45:30.989Z,-87.00
2022-12-17T03:46:31.573Z,-85.00
2022-12-17T03:47:32.152Z,-87.00
2022-12-17T03:48:32.829Z,-89.00
2022-12-17T03:49:33.524Z,-86.00
2022-12-17T03:50:34.596Z,-86.00
2022-12-17T03:51:34.957Z,-87.00
2022-12-17T03:52:34.905Z,-88.00
2022-12-17T03:52:44.037Z,-85.00
2022-12-17T03:53:45.010Z,-85.00
2022-12-17T03:54:46.043Z,-86.00
2022-12-17T03:55:46.369Z,-86.00
2022-12-17T03:56:46.086Z,-86.00
2022-12-17T03:58:47.475Z,-81.00
2022-12-17T03:59:48.373Z,-86.00
2022-12-17T04:00:50.183Z,-87.00
2022-12-17T04:01:51.267Z,-88.00
2022-12-17T04:02:50.645Z,-86.00
2022-12-17T04:03:50.851Z,-86.00
2022-12-17T04:04:51.317Z,-86.00
2022-12-17T04:05:51.863Z,-87.00
2022-12-17T04:06:53.854Z,-87.00
2022-12-17T04:07:53.568Z,-86.00
2022-12-17T04:08:54.124Z,-86.00
2022-12-17T04:09:54.291Z,-87.00
2022-12-17T04:10:54.871Z,-87.00
2022-12-17T04:11:55.585Z,-86.00
2022-12-17T04:12:55.794Z,-87.00
2022-12-17T04:13:57.444Z,-86.00
2022-12-17T04:14:57.120Z,-86.00
2022-12-17T04:15:58.051Z,-87.00
2022-12-17T04:16:58.655Z,-86.00
2022-12-17T04:17:58.821Z,-87.00
2022-12-17T04:18:59.726Z,-87.00
2022-12-17T04:20:01.294Z,-86.00
2022-12-17T04:21:01.200Z,-87.00
2022-12-17T04:22:02.039Z,-87.00
2022-12-17T04:23:02.885Z,-87.00
2022-12-17T04:24:03.697Z,-87.00
2022-12-17T04:24:12.326Z,-85.00
2022-12-17T04:25:14.088Z,-87.00
2022-12-17T04:26:15.071Z,-87.00
2022-12-17T04:27:14.821Z,-87.00
2022-12-17T04:28:15.553Z,-86.00
2022-12-17T04:29:17.378Z,-87.00
2022-12-17T04:30:16.462Z,-86.00
2022-12-17T04:31:16.822Z,-85.00
2022-12-17T04:32:17.516Z,-87.00
2022-12-17T04:33:18.547Z,-86.00
2022-12-17T04:34:25.950Z,-87.00
2022-12-17T04:35:18.987Z,-86.00
2022-12-17T04:36:20.450Z,-86.00
2022-12-17T04:37:20.195Z,-86.00
2022-12-17T04:38:20.920Z,-86.00
2022-12-17T04:39:21.609Z,-85.00
2022-12-17T04:40:23.346Z,-86.00
2022-12-17T04:41:23.171Z,-85.00
2022-12-17T04:42:23.407Z,-86.00
2022-12-17T04:43:23.960Z,-86.00
2022-12-17T04:44:24.584Z,-87.00
2022-12-17T04:45:24.896Z,-86.00
2022-12-17T04:46:26.731Z,-86.00
2022-12-17T04:47:26.052Z,-86.00
2022-12-17T04:48:27.844Z,-87.00
2022-12-17T04:49:27.263Z,-87.00
2022-12-17T04:49:35.947Z,-85.00
2022-12-17T04:50:36.723Z,-87.00
2022-12-17T04:51:37.185Z,-86.00
2022-12-17T04:52:37.455Z,-87.00
2022-12-17T04:53:38.453Z,-87.00
2022-12-17T04:54:38.258Z,-87.00
2022-12-17T04:55:38.757Z,-87.00
2022-12-17T04:56:39.153Z,-86.00
2022-12-17T04:57:40.060Z,-86.00
2022-12-17T04:58:41.580Z,-87.00
2022-12-17T04:59:41.101Z,-85.00
2022-12-17T05:00:42.227Z,-86.00
2022-12-17T05:01:42.336Z,-85.00
2022-12-17T05:02:42.950Z,-86.00
2022-12-17T05:03:42.828Z,-87.00
2022-12-17T05:04:43.449Z,-86.00
2022-12-17T05:05:44.126Z,-86.00
2022-12-17T05:06:45.028Z,-87.00
2022-12-17T05:07:45.829Z,-86.00
2022-12-17T05:08:46.230Z,-87.00
2022-12-17T05:09:46.648Z,-86.00
2022-12-17T05:10:48.064Z,-87.00
2022-12-17T05:11:47.493Z,-87.00
2022-12-17T05:12:47.997Z,-87.00
2022-12-17T05:13:49.539Z,-87.00
2022-12-17T05:14:49.208Z,-86.00
2022-12-17T05:14:57.992Z,-86.00
2022-12-17T05:15:58.592Z,-87.00
2022-12-17T05:16:59.263Z,-86.00
2022-12-17T05:18:00.013Z,-87.00
2022-12-17T05:19:00.172Z,-88.00
2022-12-17T05:20:01.767Z,-86.00
2022-12-17T05:21:01.656Z,-86.00
2022-12-17T05:22:02.310Z,-86.00
2022-12-17T05:23:03.581Z,-87.00
2022-12-17T05:24:03.703Z,-88.00
2022-12-17T05:25:03.109Z,-87.00
2022-12-17T05:26:03.441Z,-88.00
2022-12-17T05:27:04.602Z,-86.00
2022-12-17T05:28:05.151Z,-86.00
2022-12-17T05:29:05.191Z,-87.00
2022-12-17T05:30:07.007Z,-88.00
2022-12-17T05:31:06.659Z,-85.00
2022-12-17T05:32:06.822Z,-84.00
2022-12-17T05:33:08.345Z,-88.00
2022-12-17T05:34:08.155Z,-86.00
2022-12-17T05:35:08.965Z,-86.00
2022-12-17T05:36:09.724Z,-87.00
2022-12-17T05:37:10.049Z,-88.00
2022-12-17T05:37:18.734Z,-85.00
2022-12-17T05:38:18.791Z,-85.00
2022-12-17T05:39:19.732Z,-86.00
2022-12-17T05:40:19.931Z,-87.00
2022-12-17T05:41:20.019Z,-86.00
2022-12-17T05:42:20.906Z,-87.00
2022-12-17T05:43:22.765Z,-85.00
2022-12-17T05:44:23.327Z,-87.00
2022-12-17T05:45:23.232Z,-87.00
2022-12-17T05:46:23.978Z,-87.00
2022-12-17T05:47:24.418Z,-84.00
2022-12-17T05:48:24.947Z,-86.00
2022-12-17T05:49:26.391Z,-87.00
2022-12-17T05:50:26.957Z,-87.00
2022-12-17T05:51:27.385Z,-87.00
2022-12-17T05:52:28.102Z,-86.00
2022-12-17T05:53:27.355Z,-87.00
2022-12-17T05:54:28.753Z,-87.00
2022-12-17T05:55:27.870Z,-86.00
2022-12-17T05:56:28.382Z,-86.00
2022-12-17T05:57:32.363Z,-87.00
2022-12-17T05:58:29.722Z,-86.00
2022-12-17T05:59:30.211Z,-86.00
2022-12-17T06:00:32.006Z,-87.00
2022-12-17T06:01:32.818Z,-87.00
2022-12-17T06:01:45.452Z,-87.00
2022-12-17T06:02:46.205Z,-86.00
2022-12-17T06:03:46.726Z,-86.00
2022-12-17T06:04:47.482Z,-87.00
2022-12-17T06:05:48.042Z,-86.00
2022-12-17T06:06:48.262Z,-86.00
2022-12-17T06:07:48.937Z,-88.00
2022-12-17T06:08:49.602Z,-86.00
2022-12-17T06:09:50.558Z,-87.00
2022-12-17T06:10:51.161Z,-87.00
2022-12-17T06:11:51.847Z,-86.00
2022-12-17T06:12:52.316Z,-86.00
2022-12-17T06:13:53.962Z,-86.00
2022-12-17T06:14:54.378Z,-86.00
2022-12-17T06:15:55.312Z,-86.00
2022-12-17T06:16:54.970Z,-86.00
2022-12-17T06:17:55.037Z,-86.00
2022-12-17T06:18:55.875Z,-87.00
2022-12-17T06:19:55.954Z,-86.00
2022-12-17T06:20:56.852Z,-87.00
2022-12-17T06:21:57.719Z,-86.00
2022-12-17T06:22:58.345Z,-88.00
2022-12-17T06:23:58.445Z,-87.00
2022-12-17T06:24:58.957Z,-88.00
2022-12-17T06:25:59.018Z,-87.00
2022-12-17T06:27:00.021Z,-88.00
2022-12-17T06:28:00.538Z,-87.00
2022-12-17T06:29:01.157Z,-88.00
2022-12-17T06:29:09.753Z,-86.00
2022-12-17T06:30:14.269Z,-89.00
2022-12-17T06:31:11.280Z,-86.00
2022-12-17T06:32:11.770Z,-86.00
2022-12-17T06:33:12.652Z,-87.00
2022-12-17T06:34:14.629Z,-86.00
2022-12-17T06:35:14.827Z,-85.00
2022-12-17T06:36:21.610Z,-88.00
2022-12-17T06:37:15.622Z,-87.00
2022-12-17T06:38:16.281Z,-86.00
2022-12-17T06:39:16.273Z,-87.00
2022-12-17T06:40:17.706Z,-87.00
2022-12-17T06:41:17.427Z,-87.00
2022-12-17T06:42:18.202Z,-88.00
2022-12-17T06:43:27.257Z,-88.00
2022-12-17T06:44:19.455Z,-87.00
2022-12-17T06:45:20.376Z,-87.00
2022-12-17T06:46:21.304Z,-87.00
2022-12-17T06:47:21.877Z,-87.00
2022-12-17T06:48:22.603Z,-87.00
2022-12-17T06:49:23.520Z,-88.00
2022-12-17T06:50:24.300Z,-86.00
2022-12-17T06:51:25.941Z,-89.00
2022-12-17T06:52:25.739Z,-87.00
2022-12-17T06:52:34.485Z,-87.00
2022-12-17T06:53:35.391Z,-86.00
2022-12-17T06:54:35.641Z,-87.00
2022-12-17T06:55:36.249Z,-85.00
2022-12-17T06:56:36.593Z,-88.00
2022-12-17T06:57:40.783Z,-88.00
2022-12-17T06:58:37.915Z,-87.00
2022-12-17T06:59:38.828Z,-87.00
2022-12-17T07:00:39.480Z,-86.00
2022-12-17T07:01:39.980Z,-85.00
2022-12-17T07:02:40.566Z,-87.00
2022-12-17T07:03:41.082Z,-86.00
2022-12-17T07:04:42.400Z,-87.00
2022-12-17T07:05:42.239Z,-87.00
2022-12-17T07:06:44.072Z,-87.00
2022-12-17T07:07:43.710Z,-87.00
2022-12-17T07:08:45.580Z,-86.00
2022-12-17T07:09:45.689Z,-87.00
2022-12-17T07:10:45.355Z,-86.00
2022-12-17T07:13:03.211Z,-87.00
2022-12-17T07:14:03.114Z,-88.00
2022-12-17T07:15:03.778Z,-87.00
2022-12-17T07:16:04.857Z,-87.00
2022-12-17T07:17:05.108Z,-86.00
2022-12-17T07:18:05.362Z,-87.00
2022-12-17T07:19:05.772Z,-87.00
2022-12-17T07:20:07.162Z,-86.00
2022-12-17T07:21:06.396Z,-87.00
2022-12-17T07:22:07.156Z,-87.00
2022-12-17T07:23:08.171Z,-87.00
2022-12-17T07:24:08.722Z,-87.00
2022-12-17T07:25:09.322Z,-87.00
2022-12-17T07:26:10.801Z,-87.00
2022-12-17T07:27:10.235Z,-87.00
2022-12-17T07:28:10.765Z,-88.00
2022-12-17T07:29:11.346Z,-87.00
2022-12-17T07:30:12.070Z,-87.00
2022-12-17T07:31:13.626Z,-87.00
2022-12-17T07:32:13.108Z,-87.00
2022-12-17T07:33:14.566Z,-87.00
2022-12-17T07:34:14.043Z,-85.00
2022-12-17T07:35:14.695Z,-86.00
2022-12-17T07:36:15.560Z,-86.00
2022-12-17T07:37:20.298Z,-86.00
2022-12-17T07:38:16.709Z,-87.00
2022-12-17T07:39:17.410Z,-86.00
2022-12-17T07:40:17.762Z,-86.00
2022-12-17T07:40:26.411Z,-87.00
2022-12-17T07:41:26.502Z,-86.00
2022-12-17T07:42:27.323Z,-88.00
2022-12-17T07:43:28.283Z,-87.00
2022-12-17T07:44:29.156Z,-88.00
2022-12-17T07:45:29.267Z,-86.00
2022-12-17T07:46:29.715Z,-86.00
2022-12-17T07:47:30.218Z,-87.00
2022-12-17T07:48:30.666Z,-85.00
2022-12-17T07:49:31.536Z,-87.00
2022-12-17T07:50:32.432Z,-87.00
2022-12-17T07:51:34.193Z,-86.00
2022-12-17T07:52:34.608Z,-87.00
2022-12-17T07:53:35.558Z,-86.00
2022-12-17T07:54:35.991Z,-86.00
2022-12-17T07:55:35.454Z,-85.00
2022-12-17T07:56:36.472Z,-86.00
2022-12-17T07:57:42.180Z,-86.00
2022-12-17T07:58:37.595Z,-86.00
2022-12-17T07:59:37.959Z,-86.00
2022-12-17T08:00:38.524Z,-89.00
2022-12-17T08:01:40.079Z,-87.00
2022-12-17T08:02:39.634Z,-86.00
2022-12-17T08:03:40.735Z,-88.00
2022-12-17T08:04:40.634Z,-87.00
2022-12-17T08:05:42.309Z,-87.00
2022-12-17T08:05:51.008Z,-86.00
2022-12-17T08:06:55.113Z,-87.00
2022-12-17T08:07:52.092Z,-86.00
2022-12-17T08:08:53.841Z,-86.00
2022-12-17T08:09:52.915Z,-87.00
2022-12-17T08:10:53.229Z,-87.00
2022-12-17T08:11:53.389Z,-87.00
2022-12-17T08:12:54.339Z,-86.00
2022-12-17T08:13:55.657Z,-87.00
2022-12-17T08:14:55.007Z,-85.00
2022-12-17T08:15:55.412Z,-87.00
2022-12-17T08:16:56.436Z,-86.00
2022-12-17T08:17:56.864Z,-86.00
2022-12-17T08:18:56.913Z,-85.00
2022-12-17T08:19:58.381Z,-86.00
2022-12-17T08:20:59.210Z,-87.00
2022-12-17T08:21:58.363Z,-86.00
2022-12-17T08:22:59.133Z,-87.00
2022-12-17T08:23:59.758Z,-87.00
2022-12-17T08:25:00.146Z,-87.00
2022-12-17T08:26:00.906Z,-87.00
2022-12-17T08:27:01.527Z,-87.00
2022-12-17T08:28:04.552Z,-89.00
2022-12-17T08:29:02.443Z,-86.00
2022-12-17T08:30:03.159Z,-87.00
2022-12-17T08:31:05.068Z,-87.00
2022-12-17T08:31:13.744Z,-85.00
2022-12-17T08:32:14.349Z,-85.00
2022-12-17T08:33:15.021Z,-86.00
2022-12-17T08:34:15.487Z,-86.00
2022-12-17T08:35:16.024Z,-87.00
2022-12-17T08:36:16.878Z,-86.00
2022-12-17T08:37:17.472Z,-87.00
2022-12-17T08:38:17.847Z,-87.00
2022-12-17T08:39:18.757Z,-88.00
2022-12-17T08:40:19.500Z,-87.00
2022-12-17T08:41:19.611Z,-86.00
2022-12-17T08:42:19.647Z,-86.00
2022-12-17T08:43:20.523Z,-87.00
2022-12-17T08:44:22.396Z,-87.00
2022-12-17T08:45:22.921Z,-86.00
2022-12-17T08:46:23.975Z,-86.00
2022-12-17T08:47:23.036Z,-86.00
2022-12-17T08:48:23.701Z,-86.00
2022-12-17T08:49:25.543Z,-86.00
2022-12-17T08:50:24.561Z,-86.00
2022-12-17T08:51:25.635Z,-85.00
2022-12-17T08:52:25.621Z,-87.00
2022-12-17T08:53:29.515Z,-87.00
2022-12-17T08:54:26.793Z,-87.00
2022-12-17T08:55:27.548Z,-86.00
2022-12-17T08:55:36.220Z,-86.00
2022-12-17T08:56:36.873Z,-86.00
2022-12-17T08:57:37.118Z,-86.00
2022-12-17T08:58:37.411Z,-86.00
2022-12-17T08:59:37.367Z,-88.00
2022-12-17T09:00:37.870Z,-86.00
2022-12-17T09:01:38.658Z,-86.00
2022-12-17T09:02:38.848Z,-85.00
2022-12-17T09:03:40.214Z,-86.00
2022-12-17T09:04:40.258Z,-87.00
2022-12-17T09:05:41.102Z,-85.00
2022-12-17T09:06:41.829Z,-87.00
2022-12-17T09:07:42.858Z,-87.00
2022-12-17T09:08:42.398Z,-85.00
2022-12-17T09:09:42.667Z,-83.00
2022-12-17T09:10:43.148Z,-86.00
2022-12-17T09:11:44.119Z,-84.00
2022-12-17T09:12:44.596Z,-86.00
2022-12-17T09:13:45.147Z,-85.00
2022-12-17T09:14:45.837Z,-86.00
2022-12-17T09:15:47.807Z,-85.00
2022-12-17T09:16:47.622Z,-86.00
2022-12-17T09:17:48.469Z,-86.00
2022-12-17T09:18:49.035Z,-86.00
2022-12-17T09:19:49.155Z,-86.00
2022-12-17T09:20:49.764Z,-87.00
2022-12-17T09:21:50.509Z,-87.00
2022-12-17T09:22:50.612Z,-86.00
2022-12-17T09:22:59.262Z,-87.00
2022-12-17T09:24:00.218Z,-83.00
2022-12-17T09:25:00.913Z,-88.00
2022-12-17T09:26:01.048Z,-86.00
2022-12-17T09:27:01.090Z,-86.00
2022-12-17T09:28:01.448Z,-85.00
2022-12-17T09:29:02.141Z,-85.00
2022-12-17T09:30:03.161Z,-85.00
2022-12-17T09:31:03.948Z,-85.00
2022-12-17T09:32:04.626Z,-85.00
2022-12-17T09:33:04.651Z,-87.00
2022-12-17T09:34:05.058Z,-86.00
2022-12-17T09:35:07.089Z,-85.00
2022-12-17T09:36:07.127Z,-87.00
2022-12-17T09:37:07.350Z,-86.00
2022-12-17T09:38:06.421Z,-85.00
2022-12-17T09:39:08.029Z,-85.00
2022-12-17T09:40:07.080Z,-86.00
2022-12-17T09:41:08.967Z,-85.00
2022-12-17T09:42:08.387Z,-87.00
2022-12-17T09:43:10.254Z,-87.00
2022-12-17T09:44:09.953Z,-87.00
2022-12-17T09:45:10.867Z,-87.00
2022-12-17T09:46:12.547Z,-86.00
2022-12-17T09:46:21.307Z,-86.00
2022-12-17T09:47:21.207Z,-86.00
2022-12-17T09:48:22.030Z,-86.00
2022-12-17T09:49:23.910Z,-85.00
2022-12-17T09:50:22.988Z,-83.00
2022-12-17T09:51:24.130Z,-83.00
2022-12-17T09:52:23.418Z,-82.00
2022-12-17T09:53:23.870Z,-85.00
2022-12-17T09:54:24.577Z,-86.00
2022-12-17T09:55:24.937Z,-84.00
2022-12-17T09:56:26.673Z,-86.00
2022-12-17T09:57:26.818Z,-87.00
2022-12-17T09:58:27.643Z,-86.00
2022-12-17T09:59:26.476Z,-87.00
2022-12-17T10:00:27.635Z,-88.00
2022-12-17T10:01:27.530Z,-87.00
2022-12-17T10:02:28.166Z,-86.00
2022-12-17T10:03:28.357Z,-88.00
2022-12-17T10:04:28.969Z,-87.00
2022-12-17T10:05:29.853Z,-86.00
2022-12-17T10:06:30.507Z,-87.00
2022-12-17T10:07:32.074Z,-89.00
2022-12-17T10:08:31.714Z,-88.00
2022-12-17T10:09:32.443Z,-89.00
2022-12-17T10:10:33.267Z,-88.00
2022-12-17T10:10:43.947Z,-72.00
2022-12-17T10:11:44.618Z,-72.00
2022-12-17T10:12:45.503Z,-72.00
2022-12-17T10:13:46.231Z,-72.00
2022-12-17T10:14:46.561Z,-72.00
2022-12-17T10:15:47.375Z,-73.00
2022-12-17T10:16:48.231Z,-71.00
2022-12-17T10:17:48.975Z,-72.00
2022-12-17T10:18:49.709Z,-73.00
2022-12-17T10:19:50.534Z,-73.00
2022-12-17T10:20:51.237Z,-72.00
2022-12-17T10:21:51.488Z,-71.00
2022-12-17T10:22:52.374Z,-71.00
2022-12-17T10:23:52.590Z,-71.00
2022-12-17T10:24:53.113Z,-72.00
2022-12-17T10:25:53.650Z,-72.00
2022-12-17T10:26:54.540Z,-72.00
2022-12-17T10:27:55.522Z,-71.00
2022-12-17T10:28:56.356Z,-72.00
2022-12-17T10:29:56.905Z,-72.00
2022-12-17T10:30:57.955Z,-72.00
2022-12-17T10:31:58.751Z,-72.00
2022-12-17T10:32:59.780Z,-72.00
2022-12-17T10:34:00.604Z,-72.00
2022-12-17T10:35:05.223Z,-72.00
2022-12-17T10:36:01.637Z,-72.00
2022-12-17T10:37:02.558Z,-70.00
2022-12-17T10:38:03.559Z,-72.00
2022-12-17T10:39:03.915Z,-72.00
2022-12-17T10:40:04.856Z,-72.00
2022-12-17T10:41:05.171Z,-72.00
2022-12-17T10:42:05.715Z,-72.00
2022-12-17T10:42:17.915Z,-71.00
2022-12-17T10:43:18.617Z,-71.00
2022-12-17T10:44:19.311Z,-72.00
2022-12-17T10:45:19.275Z,-72.00
2022-12-17T10:46:20.003Z,-72.00
2022-12-17T10:47:20.728Z,-72.00
2022-12-17T10:48:21.646Z,-72.00
2022-12-17T10:49:21.843Z,-73.00
2022-12-17T10:50:22.437Z,-72.00
2022-12-17T10:51:23.227Z,-72.00
2022-12-17T10:52:23.885Z,-72.00
2022-12-17T10:53:24.588Z,-73.00
2022-12-17T10:54:25.190Z,-72.00
2022-12-17T10:55:26.018Z,-72.00
2022-12-17T10:56:27.901Z,-72.00
2022-12-17T10:57:27.544Z,-72.00
2022-12-17T10:58:28.228Z,-72.00
2022-12-17T10:59:29.290Z,-72.00
2022-12-17T11:00:29.849Z,-72.00
2022-12-17T11:01:30.498Z,-72.00
2022-12-17T11:02:31.119Z,-72.00
2022-12-17T11:03:31.481Z,-72.00
2022-12-17T11:04:32.346Z,-72.00
2022-12-17T11:05:32.926Z,-71.00
2022-12-17T11:06:36.214Z,-71.00
2022-12-17T11:07:33.028Z,-72.00
2022-12-17T11:08:33.734Z,-72.00
2022-12-17T11:09:33.830Z,-72.00
2022-12-17T11:10:34.553Z,-72.00
2022-12-17T11:10:47.701Z,-73.00
2022-12-17T11:11:48.494Z,-71.00
2022-12-17T11:12:49.157Z,-72.00
2022-12-17T11:13:49.456Z,-71.00
2022-12-17T11:14:49.624Z,-72.00
2022-12-17T11:15:50.195Z,-72.00
2022-12-17T11:16:50.287Z,-72.00
2022-12-17T11:17:50.803Z,-71.00
2022-12-17T11:18:51.417Z,-73.00
2022-12-17T11:19:52.236Z,-72.00
2022-12-17T11:20:52.879Z,-72.00
2022-12-17T11:21:53.800Z,-72.00
2022-12-17T11:22:54.480Z,-72.00
2022-12-17T11:23:55.001Z,-72.00
2022-12-17T11:24:55.548Z,-72.00
2022-12-17T11:25:56.332Z,-70.00
2022-12-17T11:26:57.257Z,-71.00
2022-12-17T11:27:57.459Z,-73.00
2022-12-17T11:28:58.133Z,-71.00
2022-12-17T11:29:58.452Z,-72.00
2022-12-17T11:30:59.022Z,-73.00
2022-12-17T11:31:59.645Z,-72.00
2022-12-17T11:33:00.040Z,-72.00
2022-12-17T11:34:00.552Z,-73.00
2022-12-17T11:35:01.267Z,-71.00
2022-12-17T11:36:02.061Z,-73.00
2022-12-17T11:37:02.895Z,-72.00
2022-12-17T11:38:03.522Z,-72.00
2022-12-17T11:39:04.010Z,-73.00
2022-12-17T11:40:04.043Z,-72.00
2022-12-17T11:40:18.204Z,-72.00
2022-12-17T11:41:19.051Z,-72.00
2022-12-17T11:42:19.429Z,-72.00
2022-12-17T11:43:20.256Z,-72.00
2022-12-17T11:44:20.925Z,-71.00
2022-12-17T11:45:21.715Z,-72.00
2022-12-17T11:46:22.440Z,-72.00
2022-12-17T11:47:22.467Z,-72.00
2022-12-17T11:48:23.300Z,-73.00
2022-12-17T11:49:23.802Z,-72.00
2022-12-17T11:50:23.842Z,-73.00
2022-12-17T11:51:24.352Z,-72.00
2022-12-17T11:52:25.089Z,-72.00
2022-12-17T11:53:28.121Z,-72.00
2022-12-17T11:54:26.006Z,-72.00
2022-12-17T11:55:26.731Z,-72.00
2022-12-17T11:56:27.365Z,-73.00
2022-12-17T11:57:28.123Z,-74.00
2022-12-17T11:58:28.740Z,-73.00
2022-12-17T11:59:28.977Z,-72.00
2022-12-17T12:00:29.737Z,-73.00
2022-12-17T12:01:29.903Z,-73.00
2022-12-17T12:02:30.185Z,-73.00
2022-12-17T12:03:30.476Z,-72.00
2022-12-17T12:04:30.432Z,-72.00
2022-12-17T12:05:31.363Z,-71.00
2022-12-17T12:06:32.324Z,-72.00
2022-12-17T12:07:32.400Z,-72.00
2022-12-17T12:08:33.178Z,-72.00
2022-12-17T12:09:34.005Z,-72.00
2022-12-17T12:10:34.780Z,-72.00
2022-12-17T12:11:35.742Z,-72.00
2022-12-17T12:11:51.958Z,-73.00
2022-12-17T12:12:52.391Z,-72.00
2022-12-17T12:13:52.214Z,-72.00